sensor_id;sensor_type;location;lat;lon;timestamp;P1;durP1;ratioP1;P2;durP2;ratioP2
55417;SDS011;41287;47.554;7.844;2022-09-09T00:07:06;0.65;;;0.50;;
55417;SDS011;41287;47.554;7.844;2022-09-09T00:15:26;0.60;;;0.50;;
55417;SDS011;41287;47.554;7.844;2022-09-09T00:18:31;1.10;;;0.40;;
55417;SDS011;41287;47.554;7.844;2022-09-09T00:21:02;0.88;;;0.50;;
55417;SDS011;41287;47.554;7.844;2022-09-09T00:23:37;0.60;;;0.60;;
55417;SDS011;41287;47.554;7.844;2022-09-09T00:26:12;0.40;;;0.40;;
55417;SDS011;41287;47.554;7.844;2022-09-09T00:28:55;0.68;;;0.45;;
55417;SDS011;41287;47.554;7.844;2022-09-09T00:31:25;1.05;;;0.40;;
55417;SDS011;41287;47.554;7.844;2022-09-09T00:33:53;0.38;;;0.30;;
55417;SDS011;41287;47.554;7.844;2022-09-09T00:36:21;1.00;;;0.47;;
55417;SDS011;41287;47.554;7.844;2022-09-09T00:38:55;1.65;;;0.60;;
55417;SDS011;41287;47.554;7.844;2022-09-09T00:44:06;0.75;;;0.40;;
55417;SDS011;41287;47.554;7.844;2022-09-09T00:49:51;0.60;;;0.50;;
55417;SDS011;41287;47.554;7.844;2022-09-09T00:52:36;0.90;;;0.45;;
55417;SDS011;41287;47.554;7.844;2022-09-09T00:58:16;0.65;;;0.40;;
55417;SDS011;41287;47.554;7.844;2022-09-09T01:00:45;0.85;;;0.47;;
55417;SDS011;41287;47.554;7.844;2022-09-09T01:06:02;1.33;;;0.50;;
55417;SDS011;41287;47.554;7.844;2022-09-09T01:11:36;0.80;;;0.50;;
55417;SDS011;41287;47.554;7.844;2022-09-09T01:22:14;0.60;;;0.30;;
55417;SDS011;41287;47.554;7.844;2022-09-09T01:25:05;0.75;;;0.40;;
55417;SDS011;41287;47.554;7.844;2022-09-09T01:27:32;0.40;;;0.40;;
55417;SDS011;41287;47.554;7.844;2022-09-09T01:29:59;0.82;;;0.32;;
55417;SDS011;41287;47.554;7.844;2022-09-09T01:35:09;0.93;;;0.30;;
55417;SDS011;41287;47.554;7.844;2022-09-09T01:37:49;1.48;;;0.70;;
55417;SDS011;41287;47.554;7.844;2022-09-09T01:40:14;1.23;;;0.40;;
55417;SDS011;41287;47.554;7.844;2022-09-09T01:42:40;0.85;;;0.45;;
55417;SDS011;41287;47.554;7.844;2022-09-09T01:45:05;0.43;;;0.38;;
55417;SDS011;41287;47.554;7.844;2022-09-09T01:47:31;2.00;;;0.40;;
55417;SDS011;41287;47.554;7.844;2022-09-09T01:49:57;0.43;;;0.40;;
55417;SDS011;41287;47.554;7.844;2022-09-09T01:52:25;0.63;;;0.50;;
55417;SDS011;41287;47.554;7.844;2022-09-09T01:54:51;1.02;;;0.43;;
55417;SDS011;41287;47.554;7.844;2022-09-09T01:57:39;0.82;;;0.40;;
55417;SDS011;41287;47.554;7.844;2022-09-09T02:00:15;0.90;;;0.30;;
55417;SDS011;41287;47.554;7.844;2022-09-09T02:03:05;0.60;;;0.40;;
55417;SDS011;41287;47.554;7.844;2022-09-09T02:08:39;0.45;;;0.40;;
55417;SDS011;41287;47.554;7.844;2022-09-09T02:11:16;0.77;;;0.60;;
55417;SDS011;41287;47.554;7.844;2022-09-09T02:13:44;0.63;;;0.40;;
55417;SDS011;41287;47.554;7.844;2022-09-09T02:19:13;1.58;;;0.50;;
55417;SDS011;41287;47.554;7.844;2022-09-09T02:21:57;0.40;;;0.40;;
55417;SDS011;41287;47.554;7.844;2022-09-09T02:24:25;2.10;;;0.50;;
55417;SDS011;41287;47.554;7.844;2022-09-09T02:26:54;2.67;;;0.82;;
55417;SDS011;41287;47.554;7.844;2022-09-09T02:29:24;1.10;;;0.50;;
55417;SDS011;41287;47.554;7.844;2022-09-09T02:31:57;0.40;;;0.40;;
55417;SDS011;41287;47.554;7.844;2022-09-09T02:34:27;0.47;;;0.40;;
55417;SDS011;41287;47.554;7.844;2022-09-09T02:36:55;0.60;;;0.32;;
55417;SDS011;41287;47.554;7.844;2022-09-09T02:39:24;0.93;;;0.40;;
55417;SDS011;41287;47.554;7.844;2022-09-09T02:41:50;0.30;;;0.30;;
55417;SDS011;41287;47.554;7.844;2022-09-09T02:44:17;0.88;;;0.40;;
55417;SDS011;41287;47.554;7.844;2022-09-09T02:55:50;0.50;;;0.30;;
55417;SDS011;41287;47.554;7.844;2022-09-09T02:58:22;0.55;;;0.40;;
55417;SDS011;41287;47.554;7.844;2022-09-09T03:00:48;0.35;;;0.35;;
55417;SDS011;41287;47.554;7.844;2022-09-09T03:03:16;0.80;;;0.40;;
55417;SDS011;41287;47.554;7.844;2022-09-09T03:05:43;0.88;;;0.50;;
55417;SDS011;41287;47.554;7.844;2022-09-09T03:08:09;0.98;;;0.43;;
55417;SDS011;41287;47.554;7.844;2022-09-09T03:10:37;0.47;;;0.30;;
55417;SDS011;41287;47.554;7.844;2022-09-09T03:13:03;0.60;;;0.40;;
55417;SDS011;41287;47.554;7.844;2022-09-09T03:15:31;0.30;;;0.30;;
55417;SDS011;41287;47.554;7.844;2022-09-09T03:17:58;0.30;;;0.25;;
55417;SDS011;41287;47.554;7.844;2022-09-09T03:20:26;0.77;;;0.57;;
55417;SDS011;41287;47.554;7.844;2022-09-09T03:22:53;0.47;;;0.40;;
55417;SDS011;41287;47.554;7.844;2022-09-09T03:25:19;0.30;;;0.30;;
55417;SDS011;41287;47.554;7.844;2022-09-09T03:27:45;0.55;;;0.40;;
55417;SDS011;41287;47.554;7.844;2022-09-09T03:30:12;0.68;;;0.38;;
55417;SDS011;41287;47.554;7.844;2022-09-09T03:32:38;0.50;;;0.40;;
55417;SDS011;41287;47.554;7.844;2022-09-09T03:35:05;0.40;;;0.30;;
55417;SDS011;41287;47.554;7.844;2022-09-09T03:37:30;1.23;;;0.52;;
55417;SDS011;41287;47.554;7.844;2022-09-09T03:39:56;0.85;;;0.47;;
55417;SDS011;41287;47.554;7.844;2022-09-09T03:42:22;0.32;;;0.30;;
55417;SDS011;41287;47.554;7.844;2022-09-09T03:44:47;0.30;;;0.30;;
55417;SDS011;41287;47.554;7.844;2022-09-09T03:47:18;0.93;;;0.40;;
55417;SDS011;41287;47.554;7.844;2022-09-09T03:49:45;1.35;;;0.57;;
55417;SDS011;41287;47.554;7.844;2022-09-09T03:52:11;0.47;;;0.30;;
55417;SDS011;41287;47.554;7.844;2022-09-09T03:54:36;0.20;;;0.20;;
55417;SDS011;41287;47.554;7.844;2022-09-09T03:57:02;1.65;;;0.55;;
55417;SDS011;41287;47.554;7.844;2022-09-09T03:59:28;0.47;;;0.40;;
55417;SDS011;41287;47.554;7.844;2022-09-09T04:01:53;0.95;;;0.40;;
55417;SDS011;41287;47.554;7.844;2022-09-09T04:04:19;0.50;;;0.30;;
55417;SDS011;41287;47.554;7.844;2022-09-09T04:06:45;0.63;;;0.45;;
55417;SDS011;41287;47.554;7.844;2022-09-09T04:09:13;1.02;;;0.40;;
55417;SDS011;41287;47.554;7.844;2022-09-09T04:11:38;3.13;;;0.70;;
55417;SDS011;41287;47.554;7.844;2022-09-09T04:14:04;2.00;;;0.45;;
55417;SDS011;41287;47.554;7.844;2022-09-09T04:16:31;1.60;;;0.55;;
55417;SDS011;41287;47.554;7.844;2022-09-09T04:18:57;2.63;;;0.60;;
55417;SDS011;41287;47.554;7.844;2022-09-09T04:21:24;3.03;;;0.60;;
55417;SDS011;41287;47.554;7.844;2022-09-09T04:23:50;2.15;;;0.50;;
55417;SDS011;41287;47.554;7.844;2022-09-09T04:26:17;5.68;;;0.50;;
55417;SDS011;41287;47.554;7.844;2022-09-09T04:28:43;1.38;;;0.43;;
55417;SDS011;41287;47.554;7.844;2022-09-09T04:31:11;0.85;;;0.40;;
55417;SDS011;41287;47.554;7.844;2022-09-09T04:33:41;3.37;;;0.87;;
55417;SDS011;41287;47.554;7.844;2022-09-09T04:36:06;2.03;;;0.73;;
55417;SDS011;41287;47.554;7.844;2022-09-09T04:38:33;4.88;;;1.00;;
55417;SDS011;41287;47.554;7.844;2022-09-09T04:40:58;4.00;;;0.73;;
55417;SDS011;41287;47.554;7.844;2022-09-09T04:43:24;2.30;;;0.75;;
55417;SDS011;41287;47.554;7.844;2022-09-09T04:45:50;2.80;;;1.00;;
55417;SDS011;41287;47.554;7.844;2022-09-09T04:48:16;3.28;;;1.40;;
55417;SDS011;41287;47.554;7.844;2022-09-09T04:50:43;4.88;;;1.77;;
55417;SDS011;41287;47.554;7.844;2022-09-09T04:53:08;3.50;;;1.40;;
55417;SDS011;41287;47.554;7.844;2022-09-09T04:55:34;2.85;;;1.10;;
55417;SDS011;41287;47.554;7.844;2022-09-09T04:58:04;3.17;;;1.23;;
55417;SDS011;41287;47.554;7.844;2022-09-09T05:00:30;5.43;;;1.25;;
55417;SDS011;41287;47.554;7.844;2022-09-09T05:02:56;5.47;;;1.40;;
55417;SDS011;41287;47.554;7.844;2022-09-09T05:05:21;4.05;;;1.20;;
55417;SDS011;41287;47.554;7.844;2022-09-09T05:07:47;6.22;;;1.45;;
55417;SDS011;41287;47.554;7.844;2022-09-09T05:10:13;3.90;;;1.52;;
55417;SDS011;41287;47.554;7.844;2022-09-09T05:12:39;7.68;;;1.40;;
55417;SDS011;41287;47.554;7.844;2022-09-09T05:15:05;7.80;;;1.10;;
55417;SDS011;41287;47.554;7.844;2022-09-09T05:17:30;3.90;;;1.38;;
55417;SDS011;41287;47.554;7.844;2022-09-09T05:19:56;6.93;;;1.75;;
55417;SDS011;41287;47.554;7.844;2022-09-09T05:22:21;4.70;;;1.40;;
55417;SDS011;41287;47.554;7.844;2022-09-09T05:24:48;4.22;;;1.48;;
55417;SDS011;41287;47.554;7.844;2022-09-09T05:27:15;4.93;;;1.58;;
55417;SDS011;41287;47.554;7.844;2022-09-09T05:29:43;4.50;;;1.38;;
55417;SDS011;41287;47.554;7.844;2022-09-09T05:32:09;5.80;;;1.55;;
55417;SDS011;41287;47.554;7.844;2022-09-09T05:34:35;5.13;;;1.30;;
55417;SDS011;41287;47.554;7.844;2022-09-09T05:37:02;4.97;;;1.80;;
55417;SDS011;41287;47.554;7.844;2022-09-09T05:39:27;4.47;;;1.35;;
55417;SDS011;41287;47.554;7.844;2022-09-09T05:41:52;5.78;;;1.65;;
55417;SDS011;41287;47.554;7.844;2022-09-09T05:44:18;4.53;;;1.52;;
55417;SDS011;41287;47.554;7.844;2022-09-09T05:46:44;6.40;;;1.63;;
55417;SDS011;41287;47.554;7.844;2022-09-09T05:49:09;7.07;;;1.45;;
55417;SDS011;41287;47.554;7.844;2022-09-09T05:51:35;4.25;;;1.38;;
55417;SDS011;41287;47.554;7.844;2022-09-09T05:54:00;6.75;;;1.80;;
55417;SDS011;41287;47.554;7.844;2022-09-09T05:56:27;5.68;;;1.60;;
55417;SDS011;41287;47.554;7.844;2022-09-09T05:58:54;7.97;;;1.85;;
55417;SDS011;41287;47.554;7.844;2022-09-09T06:01:25;6.35;;;1.92;;
55417;SDS011;41287;47.554;7.844;2022-09-09T06:03:52;4.35;;;2.13;;
55417;SDS011;41287;47.554;7.844;2022-09-09T06:06:19;4.85;;;2.05;;
55417;SDS011;41287;47.554;7.844;2022-09-09T06:08:56;6.22;;;1.90;;
55417;SDS011;41287;47.554;7.844;2022-09-09T06:11:23;5.95;;;2.28;;
55417;SDS011;41287;47.554;7.844;2022-09-09T06:13:51;6.10;;;1.88;;
55417;SDS011;41287;47.554;7.844;2022-09-09T06:16:19;6.75;;;2.08;;
55417;SDS011;41287;47.554;7.844;2022-09-09T06:18:49;7.15;;;1.80;;
55417;SDS011;41287;47.554;7.844;2022-09-09T06:21:23;6.78;;;1.92;;
55417;SDS011;41287;47.554;7.844;2022-09-09T06:23:54;11.65;;;2.10;;
55417;SDS011;41287;47.554;7.844;2022-09-09T06:26:27;6.82;;;1.67;;
55417;SDS011;41287;47.554;7.844;2022-09-09T06:28:54;5.65;;;1.40;;
55417;SDS011;41287;47.554;7.844;2022-09-09T06:31:21;3.50;;;1.65;;
55417;SDS011;41287;47.554;7.844;2022-09-09T06:33:47;8.30;;;1.70;;
55417;SDS011;41287;47.554;7.844;2022-09-09T06:36:18;6.40;;;2.00;;
55417;SDS011;41287;47.554;7.844;2022-09-09T06:38:45;6.93;;;1.55;;
55417;SDS011;41287;47.554;7.844;2022-09-09T06:41:11;6.28;;;1.67;;
55417;SDS011;41287;47.554;7.844;2022-09-09T06:43:38;7.13;;;2.05;;
55417;SDS011;41287;47.554;7.844;2022-09-09T06:48:35;5.50;;;1.70;;
55417;SDS011;41287;47.554;7.844;2022-09-09T06:51:10;7.95;;;1.48;;
55417;SDS011;41287;47.554;7.844;2022-09-09T06:53:38;4.35;;;1.73;;
55417;SDS011;41287;47.554;7.844;2022-09-09T06:58:35;4.75;;;1.42;;
55417;SDS011;41287;47.554;7.844;2022-09-09T07:01:04;4.93;;;1.33;;
55417;SDS011;41287;47.554;7.844;2022-09-09T07:03:31;7.50;;;1.35;;
55417;SDS011;41287;47.554;7.844;2022-09-09T07:05:57;2.78;;;1.60;;
55417;SDS011;41287;47.554;7.844;2022-09-09T07:08:24;5.55;;;1.50;;
55417;SDS011;41287;47.554;7.844;2022-09-09T07:10:50;4.50;;;1.73;;
55417;SDS011;41287;47.554;7.844;2022-09-09T07:13:18;4.50;;;1.20;;
55417;SDS011;41287;47.554;7.844;2022-09-09T07:15:49;6.55;;;1.88;;
55417;SDS011;41287;47.554;7.844;2022-09-09T07:18:14;5.00;;;1.30;;
55417;SDS011;41287;47.554;7.844;2022-09-09T07:20:39;5.30;;;1.42;;
55417;SDS011;41287;47.554;7.844;2022-09-09T07:23:06;4.15;;;1.40;;
55417;SDS011;41287;47.554;7.844;2022-09-09T07:25:31;6.45;;;1.52;;
55417;SDS011;41287;47.554;7.844;2022-09-09T07:27:56;6.35;;;1.95;;
55417;SDS011;41287;47.554;7.844;2022-09-09T07:30:22;6.00;;;1.83;;
55417;SDS011;41287;47.554;7.844;2022-09-09T07:32:47;6.32;;;1.67;;
55417;SDS011;41287;47.554;7.844;2022-09-09T07:35:21;5.72;;;1.80;;
55417;SDS011;41287;47.554;7.844;2022-09-09T07:37:47;4.63;;;1.45;;
55417;SDS011;41287;47.554;7.844;2022-09-09T07:40:12;9.07;;;2.22;;
55417;SDS011;41287;47.554;7.844;2022-09-09T07:42:37;2.55;;;1.35;;
55417;SDS011;41287;47.554;7.844;2022-09-09T07:45:03;6.10;;;2.03;;
55417;SDS011;41287;47.554;7.844;2022-09-09T07:47:29;7.43;;;1.58;;
55417;SDS011;41287;47.554;7.844;2022-09-09T07:49:54;4.88;;;1.58;;
55417;SDS011;41287;47.554;7.844;2022-09-09T07:52:20;4.65;;;1.40;;
55417;SDS011;41287;47.554;7.844;2022-09-09T07:54:46;3.13;;;1.40;;
55417;SDS011;41287;47.554;7.844;2022-09-09T07:57:11;5.35;;;1.92;;
55417;SDS011;41287;47.554;7.844;2022-09-09T07:59:37;4.57;;;1.38;;
55417;SDS011;41287;47.554;7.844;2022-09-09T08:02:03;3.70;;;1.33;;
55417;SDS011;41287;47.554;7.844;2022-09-09T08:04:28;4.10;;;1.40;;
55417;SDS011;41287;47.554;7.844;2022-09-09T08:06:55;3.63;;;1.38;;
55417;SDS011;41287;47.554;7.844;2022-09-09T08:09:22;5.22;;;1.52;;
55417;SDS011;41287;47.554;7.844;2022-09-09T08:11:53;3.63;;;1.38;;
55417;SDS011;41287;47.554;7.844;2022-09-09T08:14:21;4.97;;;1.45;;
55417;SDS011;41287;47.554;7.844;2022-09-09T08:16:48;3.92;;;1.30;;
55417;SDS011;41287;47.554;7.844;2022-09-09T08:19:14;6.00;;;1.38;;
55417;SDS011;41287;47.554;7.844;2022-09-09T08:21:41;5.78;;;1.70;;
55417;SDS011;41287;47.554;7.844;2022-09-09T08:24:09;3.10;;;1.60;;
55417;SDS011;41287;47.554;7.844;2022-09-09T08:26:40;4.82;;;1.35;;
55417;SDS011;41287;47.554;7.844;2022-09-09T08:29:07;3.38;;;1.05;;
55417;SDS011;41287;47.554;7.844;2022-09-09T08:31:38;5.10;;;1.38;;
55417;SDS011;41287;47.554;7.844;2022-09-09T08:34:09;4.05;;;1.25;;
55417;SDS011;41287;47.554;7.844;2022-09-09T08:36:38;2.22;;;1.10;;
55417;SDS011;41287;47.554;7.844;2022-09-09T08:39:07;6.32;;;1.27;;
55417;SDS011;41287;47.554;7.844;2022-09-09T08:57:49;3.20;;;1.23;;
55417;SDS011;41287;47.554;7.844;2022-09-09T09:00:18;3.20;;;1.13;;
55417;SDS011;41287;47.554;7.844;2022-09-09T09:05:32;3.80;;;0.90;;
55417;SDS011;41287;47.554;7.844;2022-09-09T09:10:54;1.42;;;0.70;;
55417;SDS011;41287;47.554;7.844;2022-09-09T09:16:02;3.90;;;0.90;;
55417;SDS011;41287;47.554;7.844;2022-09-09T09:18:39;3.25;;;0.90;;
55417;SDS011;41287;47.554;7.844;2022-09-09T09:21:10;3.88;;;1.45;;
55417;SDS011;41287;47.554;7.844;2022-09-09T09:23:43;1.73;;;0.82;;
55417;SDS011;41287;47.554;7.844;2022-09-09T09:26:15;2.33;;;1.00;;
55417;SDS011;41287;47.554;7.844;2022-09-09T09:28:41;2.65;;;1.00;;
55417;SDS011;41287;47.554;7.844;2022-09-09T09:31:09;4.43;;;1.40;;
55417;SDS011;41287;47.554;7.844;2022-09-09T09:33:51;2.42;;;0.98;;
55417;SDS011;41287;47.554;7.844;2022-09-09T09:36:18;2.47;;;0.98;;
55417;SDS011;41287;47.554;7.844;2022-09-09T09:38:55;2.42;;;0.98;;
55417;SDS011;41287;47.554;7.844;2022-09-09T09:41:35;2.15;;;0.80;;
55417;SDS011;41287;47.554;7.844;2022-09-09T09:44:04;3.60;;;1.30;;
55417;SDS011;41287;47.554;7.844;2022-09-09T09:46:30;3.30;;;0.82;;
55417;SDS011;41287;47.554;7.844;2022-09-09T09:48:57;1.45;;;1.00;;
55417;SDS011;41287;47.554;7.844;2022-09-09T09:51:26;3.03;;;0.88;;
55417;SDS011;41287;47.554;7.844;2022-09-09T09:54:01;3.13;;;1.00;;
55417;SDS011;41287;47.554;7.844;2022-09-09T09:56:38;3.20;;;0.70;;
55417;SDS011;41287;47.554;7.844;2022-09-09T09:59:05;1.88;;;0.75;;
55417;SDS011;41287;47.554;7.844;2022-09-09T10:01:45;1.30;;;0.70;;
55417;SDS011;41287;47.554;7.844;2022-09-09T10:04:18;2.42;;;0.90;;
55417;SDS011;41287;47.554;7.844;2022-09-09T10:06:48;1.52;;;0.80;;
55417;SDS011;41287;47.554;7.844;2022-09-09T10:14:37;2.15;;;0.85;;
55417;SDS011;41287;47.554;7.844;2022-09-09T10:22:44;2.92;;;1.70;;
55417;SDS011;41287;47.554;7.844;2022-09-09T10:25:31;2.95;;;1.35;;
55417;SDS011;41287;47.554;7.844;2022-09-09T10:31:14;4.15;;;1.67;;
55417;SDS011;41287;47.554;7.844;2022-09-09T10:33:51;4.30;;;1.67;;
55417;SDS011;41287;47.554;7.844;2022-09-09T10:36:32;6.70;;;2.10;;
55417;SDS011;41287;47.554;7.844;2022-09-09T10:39:18;4.53;;;1.73;;
55417;SDS011;41287;47.554;7.844;2022-09-09T10:42:06;5.38;;;1.85;;
55417;SDS011;41287;47.554;7.844;2022-09-09T10:44:38;4.63;;;1.70;;
55417;SDS011;41287;47.554;7.844;2022-09-09T10:55:51;3.30;;;1.35;;
55417;SDS011;41287;47.554;7.844;2022-09-09T10:58:25;3.92;;;1.33;;
55417;SDS011;41287;47.554;7.844;2022-09-09T11:00:59;5.45;;;1.70;;
55417;SDS011;41287;47.554;7.844;2022-09-09T11:03:32;4.53;;;1.50;;
55417;SDS011;41287;47.554;7.844;2022-09-09T11:06:04;4.03;;;1.65;;
55417;SDS011;41287;47.554;7.844;2022-09-09T11:08:34;3.97;;;1.60;;
55417;SDS011;41287;47.554;7.844;2022-09-09T11:13:39;2.40;;;1.30;;
55417;SDS011;41287;47.554;7.844;2022-09-09T11:19:30;2.65;;;1.30;;
55417;SDS011;41287;47.554;7.844;2022-09-09T11:21:57;3.30;;;1.38;;
55417;SDS011;41287;47.554;7.844;2022-09-09T11:24:28;3.10;;;1.38;;
55417;SDS011;41287;47.554;7.844;2022-09-09T11:27:01;3.05;;;1.20;;
55417;SDS011;41287;47.554;7.844;2022-09-09T11:38:26;2.03;;;1.20;;
55417;SDS011;41287;47.554;7.844;2022-09-09T11:40:57;3.67;;;1.45;;
55417;SDS011;41287;47.554;7.844;2022-09-09T11:43:33;2.75;;;1.48;;
55417;SDS011;41287;47.554;7.844;2022-09-09T11:46:06;3.67;;;1.20;;
55417;SDS011;41287;47.554;7.844;2022-09-09T11:51:25;2.38;;;1.02;;
55417;SDS011;41287;47.554;7.844;2022-09-09T11:53:56;2.95;;;1.10;;
55417;SDS011;41287;47.554;7.844;2022-09-09T11:56:27;2.85;;;1.10;;
55417;SDS011;41287;47.554;7.844;2022-09-09T12:04:30;2.50;;;1.02;;
55417;SDS011;41287;47.554;7.844;2022-09-09T12:07:05;3.05;;;0.90;;
55417;SDS011;41287;47.554;7.844;2022-09-09T12:09:58;3.08;;;1.13;;
55417;SDS011;41287;47.554;7.844;2022-09-09T12:12:29;3.00;;;1.02;;
55417;SDS011;41287;47.554;7.844;2022-09-09T12:14:58;2.65;;;1.20;;
55417;SDS011;41287;47.554;7.844;2022-09-09T12:17:27;2.97;;;1.30;;
55417;SDS011;41287;47.554;7.844;2022-09-09T12:20:00;3.10;;;0.95;;
55417;SDS011;41287;47.554;7.844;2022-09-09T12:28:15;2.50;;;1.02;;
55417;SDS011;41287;47.554;7.844;2022-09-09T12:36:36;4.40;;;1.20;;
55417;SDS011;41287;47.554;7.844;2022-09-09T12:39:10;3.70;;;0.95;;
55417;SDS011;41287;47.554;7.844;2022-09-09T12:41:50;1.83;;;0.90;;
55417;SDS011;41287;47.554;7.844;2022-09-09T12:44:21;2.83;;;1.05;;
55417;SDS011;41287;47.554;7.844;2022-09-09T12:46:48;1.77;;;0.80;;
55417;SDS011;41287;47.554;7.844;2022-09-09T12:52:06;2.42;;;1.00;;
55417;SDS011;41287;47.554;7.844;2022-09-09T12:54:35;2.72;;;1.08;;
55417;SDS011;41287;47.554;7.844;2022-09-09T12:57:01;3.55;;;1.00;;
55417;SDS011;41287;47.554;7.844;2022-09-09T12:59:35;2.15;;;0.98;;
55417;SDS011;41287;47.554;7.844;2022-09-09T13:02:02;9.00;;;1.70;;
55417;SDS011;41287;47.554;7.844;2022-09-09T13:04:27;1.77;;;0.80;;
55417;SDS011;41287;47.554;7.844;2022-09-09T13:06:53;4.57;;;1.15;;
55417;SDS011;41287;47.554;7.844;2022-09-09T13:09:18;3.95;;;0.80;;
55417;SDS011;41287;47.554;7.844;2022-09-09T13:11:46;3.45;;;1.10;;
55417;SDS011;41287;47.554;7.844;2022-09-09T13:14:28;4.03;;;0.98;;
55417;SDS011;41287;47.554;7.844;2022-09-09T13:16:58;2.67;;;0.80;;
55417;SDS011;41287;47.554;7.844;2022-09-09T13:19:25;2.72;;;0.98;;
55417;SDS011;41287;47.554;7.844;2022-09-09T13:21:54;2.10;;;1.00;;
55417;SDS011;41287;47.554;7.844;2022-09-09T13:24:25;3.53;;;1.08;;
55417;SDS011;41287;47.554;7.844;2022-09-09T13:27:40;2.05;;;0.85;;
55417;SDS011;41287;47.554;7.844;2022-09-09T13:29:54;2.97;;;1.00;;
55417;SDS011;41287;47.554;7.844;2022-09-09T13:32:21;1.77;;;0.73;;
55417;SDS011;41287;47.554;7.844;2022-09-09T13:34:51;1.95;;;0.90;;
55417;SDS011;41287;47.554;7.844;2022-09-09T13:37:34;1.55;;;0.70;;
55417;SDS011;41287;47.554;7.844;2022-09-09T13:40:02;3.25;;;0.90;;
55417;SDS011;41287;47.554;7.844;2022-09-09T13:42:31;1.65;;;0.80;;
55417;SDS011;41287;47.554;7.844;2022-09-09T13:45:00;2.03;;;0.70;;
55417;SDS011;41287;47.554;7.844;2022-09-09T13:47:32;4.63;;;1.17;;
55417;SDS011;41287;47.554;7.844;2022-09-09T13:50:20;3.70;;;1.00;;
55417;SDS011;41287;47.554;7.844;2022-09-09T13:52:58;2.05;;;1.00;;
55417;SDS011;41287;47.554;7.844;2022-09-09T13:55:25;3.08;;;0.93;;
55417;SDS011;41287;47.554;7.844;2022-09-09T13:57:57;3.00;;;0.70;;
55417;SDS011;41287;47.554;7.844;2022-09-09T14:00:26;3.88;;;0.90;;
55417;SDS011;41287;47.554;7.844;2022-09-09T14:02:54;4.43;;;0.85;;
55417;SDS011;41287;47.554;7.844;2022-09-09T14:05:22;5.18;;;1.02;;
55417;SDS011;41287;47.554;7.844;2022-09-09T14:07:48;5.82;;;1.40;;
55417;SDS011;41287;47.554;7.844;2022-09-09T14:10:14;1.25;;;0.70;;
55417;SDS011;41287;47.554;7.844;2022-09-09T14:12:40;3.35;;;1.17;;
55417;SDS011;41287;47.554;7.844;2022-09-09T14:15:06;3.38;;;1.00;;
55417;SDS011;41287;47.554;7.844;2022-09-09T14:17:34;3.45;;;0.73;;
55417;SDS011;41287;47.554;7.844;2022-09-09T14:20:01;2.95;;;0.90;;
55417;SDS011;41287;47.554;7.844;2022-09-09T14:22:36;2.70;;;0.90;;
55417;SDS011;41287;47.554;7.844;2022-09-09T14:25:04;1.55;;;0.65;;
55417;SDS011;41287;47.554;7.844;2022-09-09T14:27:30;3.15;;;0.75;;
55417;SDS011;41287;47.554;7.844;2022-09-09T14:29:55;1.95;;;0.80;;
55417;SDS011;41287;47.554;7.844;2022-09-09T14:32:22;2.25;;;0.93;;
55417;SDS011;41287;47.554;7.844;2022-09-09T14:34:47;2.33;;;0.70;;
55417;SDS011;41287;47.554;7.844;2022-09-09T14:37:15;1.83;;;0.70;;
55417;SDS011;41287;47.554;7.844;2022-09-09T14:39:43;1.70;;;0.80;;
55417;SDS011;41287;47.554;7.844;2022-09-09T14:42:10;2.25;;;1.00;;
55417;SDS011;41287;47.554;7.844;2022-09-09T14:44:39;1.88;;;0.75;;
55417;SDS011;41287;47.554;7.844;2022-09-09T14:47:05;1.92;;;0.60;;
55417;SDS011;41287;47.554;7.844;2022-09-09T14:49:32;3.97;;;0.80;;
55417;SDS011;41287;47.554;7.844;2022-09-09T14:51:58;1.95;;;0.68;;
55417;SDS011;41287;47.554;7.844;2022-09-09T14:54:23;2.67;;;0.90;;
55417;SDS011;41287;47.554;7.844;2022-09-09T14:56:53;1.08;;;0.70;;
55417;SDS011;41287;47.554;7.844;2022-09-09T14:59:18;1.95;;;0.75;;
55417;SDS011;41287;47.554;7.844;2022-09-09T15:01:43;3.35;;;1.00;;
55417;SDS011;41287;47.554;7.844;2022-09-09T15:04:10;1.17;;;0.60;;
55417;SDS011;41287;47.554;7.844;2022-09-09T15:06:37;3.28;;;1.02;;
55417;SDS011;41287;47.554;7.844;2022-09-09T15:09:04;2.45;;;0.65;;
55417;SDS011;41287;47.554;7.844;2022-09-09T15:11:30;3.33;;;0.77;;
55417;SDS011;41287;47.554;7.844;2022-09-09T15:14:02;1.25;;;0.80;;
55417;SDS011;41287;47.554;7.844;2022-09-09T15:16:28;2.97;;;0.85;;
55417;SDS011;41287;47.554;7.844;2022-09-09T15:18:55;2.20;;;0.82;;
55417;SDS011;41287;47.554;7.844;2022-09-09T15:21:24;2.63;;;0.70;;
55417;SDS011;41287;47.554;7.844;2022-09-09T15:23:52;1.80;;;0.60;;
55417;SDS011;41287;47.554;7.844;2022-09-09T15:26:17;1.85;;;0.90;;
55417;SDS011;41287;47.554;7.844;2022-09-09T15:28:44;2.42;;;0.70;;
55417;SDS011;41287;47.554;7.844;2022-09-09T15:33:46;3.85;;;0.80;;
55417;SDS011;41287;47.554;7.844;2022-09-09T15:36:26;1.17;;;0.65;;
55417;SDS011;41287;47.554;7.844;2022-09-09T15:38:57;2.28;;;0.77;;
55417;SDS011;41287;47.554;7.844;2022-09-09T15:41:23;3.65;;;0.70;;
55417;SDS011;41287;47.554;7.844;2022-09-09T15:43:49;4.30;;;0.80;;
55417;SDS011;41287;47.554;7.844;2022-09-09T15:48:42;0.70;;;0.60;;
55417;SDS011;41287;47.554;7.844;2022-09-09T15:51:09;3.80;;;0.70;;
55417;SDS011;41287;47.554;7.844;2022-09-09T15:53:35;1.30;;;0.70;;
55417;SDS011;41287;47.554;7.844;2022-09-09T15:56:02;1.10;;;0.60;;
55417;SDS011;41287;47.554;7.844;2022-09-09T15:58:29;2.55;;;0.75;;
55417;SDS011;41287;47.554;7.844;2022-09-09T16:01:01;3.28;;;0.80;;
55417;SDS011;41287;47.554;7.844;2022-09-09T16:03:29;3.00;;;0.90;;
55417;SDS011;41287;47.554;7.844;2022-09-09T16:05:55;2.05;;;0.60;;
55417;SDS011;41287;47.554;7.844;2022-09-09T16:08:20;3.17;;;0.70;;
55417;SDS011;41287;47.554;7.844;2022-09-09T16:10:45;1.40;;;1.08;;
55417;SDS011;41287;47.554;7.844;2022-09-09T16:13:11;1.65;;;0.70;;
55417;SDS011;41287;47.554;7.844;2022-09-09T16:15:38;1.70;;;0.80;;
55417;SDS011;41287;47.554;7.844;2022-09-09T16:18:03;5.15;;;0.80;;
55417;SDS011;41287;47.554;7.844;2022-09-09T16:20:29;1.65;;;0.98;;
55417;SDS011;41287;47.554;7.844;2022-09-09T16:22:55;2.08;;;0.60;;
55417;SDS011;41287;47.554;7.844;2022-09-09T16:25:22;2.95;;;0.75;;
55417;SDS011;41287;47.554;7.844;2022-09-09T16:27:47;4.28;;;1.00;;
55417;SDS011;41287;47.554;7.844;2022-09-09T16:30:13;1.73;;;0.52;;
55417;SDS011;41287;47.554;7.844;2022-09-09T16:32:38;1.38;;;0.60;;
55417;SDS011;41287;47.554;7.844;2022-09-09T16:35:03;3.22;;;0.82;;
55417;SDS011;41287;47.554;7.844;2022-09-09T16:37:30;2.72;;;0.73;;
55417;SDS011;41287;47.554;7.844;2022-09-09T16:39:58;2.70;;;0.75;;
55417;SDS011;41287;47.554;7.844;2022-09-09T16:42:24;3.10;;;0.75;;
55417;SDS011;41287;47.554;7.844;2022-09-09T16:44:49;1.98;;;0.55;;
55417;SDS011;41287;47.554;7.844;2022-09-09T16:47:15;1.75;;;0.60;;
55417;SDS011;41287;47.554;7.844;2022-09-09T16:49:42;0.88;;;0.50;;
55417;SDS011;41287;47.554;7.844;2022-09-09T16:52:08;2.75;;;0.75;;
55417;SDS011;41287;47.554;7.844;2022-09-09T16:54:33;3.83;;;0.85;;
55417;SDS011;41287;47.554;7.844;2022-09-09T16:56:59;2.88;;;0.70;;
55417;SDS011;41287;47.554;7.844;2022-09-09T16:59:24;1.83;;;0.77;;
55417;SDS011;41287;47.554;7.844;2022-09-09T17:01:51;1.73;;;0.60;;
55417;SDS011;41287;47.554;7.844;2022-09-09T17:04:21;1.77;;;0.82;;
55417;SDS011;41287;47.554;7.844;2022-09-09T17:06:49;3.28;;;0.73;;
55417;SDS011;41287;47.554;7.844;2022-09-09T17:09:16;1.17;;;0.50;;
55417;SDS011;41287;47.554;7.844;2022-09-09T17:11:42;2.33;;;0.73;;
55417;SDS011;41287;47.554;7.844;2022-09-09T17:14:08;2.10;;;0.75;;
55417;SDS011;41287;47.554;7.844;2022-09-09T17:16:36;1.80;;;0.63;;
55417;SDS011;41287;47.554;7.844;2022-09-09T17:19:04;4.10;;;0.90;;
55417;SDS011;41287;47.554;7.844;2022-09-09T17:21:31;1.88;;;0.60;;
55417;SDS011;41287;47.554;7.844;2022-09-09T17:23:58;1.45;;;0.55;;
55417;SDS011;41287;47.554;7.844;2022-09-09T17:26:26;0.70;;;0.60;;